createdAt,value
2024-03-05T00:02:40.375Z,101706.28
2024-03-05T00:05:30.696Z,101714.78
2024-03-05T00:08:20.094Z,101715.88
2024-03-05T00:11:08.874Z,101705.50
2024-03-05T00:13:57.162Z,101716.38
2024-03-05T00:16:45.591Z,101711.53
2024-03-05T00:19:34.357Z,101708.47
2024-03-05T00:22:22.505Z,101705.38
2024-03-05T00:25:12.534Z,101708.72
2024-03-05T00:28:00.651Z,101704.53
2024-03-05T00:30:48.747Z,101713.81
2024-03-05T00:33:36.737Z,101720.28
2024-03-05T00:36:26.293Z,101716.78
2024-03-05T00:39:15.078Z,101725.16
2024-03-05T00:42:04.876Z,101716.38
2024-03-05T00:44:52.988Z,101730.16
2024-03-05T00:47:41.186Z,101728.38
2024-03-05T00:50:29.324Z,101732.84
2024-03-05T00:53:17.339Z,101726.25
2024-03-05T00:56:07.395Z,101721.81
2024-03-05T00:58:57.316Z,101717.91
2024-03-05T01:01:45.430Z,101726.94
2024-03-05T01:04:33.775Z,101716.81
2024-03-05T01:07:22.304Z,101720.19
2024-03-05T01:10:10.917Z,101719.53
2024-03-05T01:12:59.075Z,101716.78
2024-03-05T01:15:48.734Z,101727.47
2024-03-05T01:18:38.109Z,101698.59
2024-03-05T01:21:26.267Z,101708.56
2024-03-05T01:24:14.531Z,101702.22
2024-03-05T01:27:02.696Z,101701.44
2024-03-05T01:29:51.238Z,101703.28
2024-03-05T01:32:40.966Z,101698.03
2024-03-05T01:35:29.120Z,101692.69
2024-03-05T01:38:17.265Z,101693.75
2024-03-05T01:41:05.642Z,101694.56
2024-03-05T01:43:53.925Z,101693.75
2024-03-05T01:46:42.411Z,101700.22
2024-03-05T01:49:32.433Z,101686.94
2024-03-05T01:52:21.337Z,101687.28
2024-03-05T01:55:14.181Z,101684.50
2024-03-05T01:58:05.140Z,101683.78
2024-03-05T02:00:53.357Z,101673.53
2024-03-05T02:03:42.701Z,101691.88
2024-03-05T02:06:34.818Z,101693.91
2024-03-05T02:09:24.123Z,101692.44
2024-03-05T02:12:12.205Z,101692.97
2024-03-05T02:15:00.296Z,101692.97
2024-03-05T02:17:48.908Z,101698.25
2024-03-05T02:20:37.548Z,101694.63
2024-03-05T02:23:26.984Z,101689.13
2024-03-05T02:26:15.950Z,101696.91
2024-03-05T02:29:04.345Z,101688.69
2024-03-05T02:31:52.962Z,101697.63
2024-03-05T02:34:41.241Z,101701.25
2024-03-05T02:37:29.400Z,101700.69
2024-03-05T02:40:19.241Z,101699.88
2024-03-05T02:43:08.070Z,101702.19
2024-03-05T02:45:56.223Z,101693.00
2024-03-05T02:48:44.783Z,101693.81
2024-03-05T02:51:32.877Z,101685.47
2024-03-05T02:54:21.084Z,101685.31
2024-03-05T02:57:10.446Z,101681.69
2024-03-05T02:59:58.528Z,101680.19
2024-03-05T03:02:48.029Z,101695.16
2024-03-05T03:05:37.121Z,101686.56
2024-03-05T03:08:25.193Z,101686.28
2024-03-05T03:11:16.928Z,101684.94
2024-03-05T03:14:08.711Z,101687.63
2024-03-05T03:16:56.881Z,101689.09
2024-03-05T03:19:45.343Z,101681.59
2024-03-05T03:22:33.498Z,101683.47
2024-03-05T03:25:22.132Z,101679.41
2024-03-05T03:28:10.330Z,101682.78
2024-03-05T03:30:59.877Z,101676.84
2024-03-05T03:33:48.009Z,101682.91
2024-03-05T03:36:36.140Z,101674.81
2024-03-05T03:39:25.915Z,101679.94
2024-03-05T03:42:14.365Z,101670.59
2024-03-05T03:45:02.440Z,101656.66
2024-03-05T03:47:52.189Z,101662.28
2024-03-05T03:50:40.273Z,101661.72
2024-03-05T03:53:28.360Z,101666.13
2024-03-05T03:56:16.803Z,101664.25
2024-03-05T03:59:04.943Z,101662.22
2024-03-05T04:01:53.718Z,101668.28
2024-03-05T04:04:43.728Z,101667.03
2024-03-05T04:07:33.243Z,101666.75
2024-03-05T04:10:21.721Z,101666.75
2024-03-05T04:13:09.883Z,101668.63
2024-03-05T04:15:58.720Z,101674.03
2024-03-05T04:18:47.340Z,101672.13
2024-03-05T04:21:42.074Z,101671.38
2024-03-05T04:24:32.173Z,101676.75
2024-03-05T04:27:21.774Z,101669.19
2024-03-05T04:30:13.754Z,101680.56
2024-03-05T04:33:05.350Z,101698.28
2024-03-05T04:35:53.825Z,101707.75
2024-03-05T04:38:44.800Z,101695.59
2024-03-05T04:41:32.898Z,101695.22
2024-03-05T04:44:21.042Z,101689.66
2024-03-05T04:47:09.370Z,101683.94
2024-03-05T04:49:58.864Z,101683.69
2024-03-05T04:52:47.302Z,101684.22
2024-03-05T04:55:37.244Z,101686.47
2024-03-05T04:58:25.625Z,101678.84
2024-03-05T05:01:13.732Z,101636.22
2024-03-05T05:04:01.801Z,101614.88
2024-03-05T05:06:49.920Z,101604.59
2024-03-05T05:09:38.385Z,101601.44
2024-03-05T05:12:27.871Z,101598.34
2024-03-05T05:15:16.132Z,101594.66
2024-03-05T05:18:05.932Z,101578.59
2024-03-05T05:20:54.068Z,101577.34
2024-03-05T05:23:42.158Z,101579.44
2024-03-05T05:26:30.379Z,101573.19
2024-03-05T05:29:27.373Z,101561.16
2024-03-05T05:32:25.026Z,101560.50
2024-03-05T05:35:13.175Z,101552.66
2024-03-05T05:38:01.614Z,101552.66
2024-03-05T05:40:50.787Z,101551.53
2024-03-05T05:43:39.159Z,101544.47
2024-03-05T05:46:29.307Z,101540.81
2024-03-05T05:49:21.299Z,101546.75
2024-03-05T05:52:10.105Z,101547.09
2024-03-05T05:54:58.182Z,101543.56
2024-03-05T05:57:47.456Z,101547.91
2024-03-05T06:00:38.060Z,101530.25
2024-03-05T06:03:27.776Z,101519.97
2024-03-05T06:06:20.983Z,101522.88
2024-03-05T06:09:10.543Z,101527.41
2024-03-05T06:11:58.795Z,101528.22
2024-03-05T06:14:46.876Z,101526.97
2024-03-05T06:17:35.444Z,101517.84
2024-03-05T06:20:24.880Z,101518.00
2024-03-05T06:23:13.619Z,101511.88
2024-03-05T06:26:02.373Z,101505.63
2024-03-05T06:28:50.635Z,101506.28
2024-03-05T06:31:38.737Z,101511.09
2024-03-05T06:34:26.869Z,101504.84
2024-03-05T06:37:16.610Z,101506.78
2024-03-05T06:40:10.326Z,101500.66
2024-03-05T06:43:06.842Z,101497.44
2024-03-05T06:45:55.937Z,101494.84
2024-03-05T06:48:48.816Z,101503.38
2024-03-05T06:51:43.110Z,101497.28
2024-03-05T06:54:52.959Z,101495.19
2024-03-05T06:57:41.263Z,101505.97
2024-03-05T07:00:30.802Z,101510.78
2024-03-05T07:03:19.019Z,101512.06
2024-03-05T07:06:09.148Z,101498.88
2024-03-05T07:08:57.697Z,101497.94
2024-03-05T07:11:48.629Z,101491.50
2024-03-05T07:14:36.850Z,101491.50
2024-03-05T07:17:24.891Z,101491.81
2024-03-05T07:20:19.698Z,101483.13
2024-03-05T07:23:08.005Z,101483.63
2024-03-05T07:25:56.242Z,101485.06
2024-03-05T07:28:46.291Z,101483.94
2024-03-05T07:31:34.644Z,101486.81
2024-03-05T07:34:22.870Z,101479.56
2024-03-05T07:37:10.901Z,101480.88
2024-03-05T07:39:58.906Z,101477.94
2024-03-05T07:42:49.128Z,101489.88
2024-03-05T07:45:38.574Z,101487.13
2024-03-05T07:48:26.607Z,101489.03
2024-03-05T07:51:21.461Z,101490.81
2024-03-05T07:54:14.683Z,101490.34
2024-03-05T07:57:03.299Z,101479.06
2024-03-05T07:59:54.596Z,101488.41
2024-03-05T08:02:46.129Z,101480.50
2024-03-05T08:05:35.956Z,101479.19
2024-03-05T08:08:26.577Z,101480.00
2024-03-05T08:11:14.911Z,101477.59
2024-03-05T08:14:05.038Z,101479.03
2024-03-05T08:16:53.375Z,101477.13
2024-03-05T08:19:43.073Z,101471.78
2024-03-05T08:22:31.326Z,101490.63
2024-03-05T08:25:20.723Z,101490.28
2024-03-05T08:28:08.917Z,101483.84
2024-03-05T08:30:57.189Z,101497.81
2024-03-05T08:33:45.591Z,101499.56
2024-03-05T08:36:38.069Z,101499.25
2024-03-05T08:39:26.595Z,101497.75
2024-03-05T08:42:15.061Z,101502.25
2024-03-05T08:45:05.359Z,101498.53
2024-03-05T08:47:55.008Z,101494.81
2024-03-05T08:50:44.739Z,101498.66
2024-03-05T08:53:34.195Z,101500.75
2024-03-05T08:56:22.399Z,101501.22
2024-03-05T08:59:10.490Z,101501.31
2024-03-05T09:01:58.811Z,101493.59
2024-03-05T09:04:47.148Z,101496.94
2024-03-05T09:07:35.336Z,101498.72
2024-03-05T09:10:24.968Z,101496.78
2024-03-05T09:13:13.004Z,101500.28
2024-03-05T09:16:01.089Z,101506.06
2024-03-05T09:18:49.298Z,101500.41
2024-03-05T09:21:37.606Z,101502.47
2024-03-05T09:24:25.751Z,101507.72
2024-03-05T09:27:15.182Z,101519.63
2024-03-05T09:30:06.319Z,101525.59
2024-03-05T09:32:54.429Z,101504.66
2024-03-05T09:35:42.846Z,101504.91
2024-03-05T09:38:32.472Z,101502.50
2024-03-05T09:41:20.961Z,101509.31
2024-03-05T09:44:10.911Z,101517.44
2024-03-05T09:47:02.830Z,101518.38
2024-03-05T09:49:52.879Z,101520.53
2024-03-05T09:52:41.163Z,101526.53
2024-03-05T09:55:29.446Z,101532.59
2024-03-05T09:58:22.627Z,101536.97
2024-03-05T10:01:12.081Z,101544.56
2024-03-05T10:04:01.899Z,101561.50
2024-03-05T10:06:51.521Z,101584.78
2024-03-05T10:09:39.582Z,101604.56
2024-03-05T10:12:28.704Z,101619.81
2024-03-05T10:15:21.033Z,101631.06
2024-03-05T10:18:11.069Z,101652.91
2024-03-05T10:21:16.774Z,101673.44
2024-03-05T10:24:06.728Z,101680.75
2024-03-05T10:26:55.418Z,101698.25
2024-03-05T10:29:43.717Z,101721.84
2024-03-05T10:32:31.951Z,101767.38
2024-03-05T10:35:21.405Z,101779.72
2024-03-05T10:38:12.029Z,101786.59
2024-03-05T10:41:01.256Z,101787.22
2024-03-05T10:43:52.649Z,101786.44
2024-03-05T10:46:41.986Z,101788.47
2024-03-05T10:49:30.298Z,101774.47
2024-03-05T10:52:26.021Z,101793.19
2024-03-05T10:55:15.623Z,101781.97
2024-03-05T10:58:38.014Z,101792.06
2024-03-05T11:01:27.828Z,101792.75
2024-03-05T11:04:19.686Z,101799.56
2024-03-05T11:07:08.022Z,101799.94
2024-03-05T11:09:59.265Z,101792.75
2024-03-05T11:12:47.526Z,101795.97
2024-03-05T11:15:36.898Z,101801.97
2024-03-05T11:18:34.230Z,101802.69
2024-03-05T11:21:24.535Z,101798.94
2024-03-05T11:24:15.514Z,101798.69
2024-03-05T11:27:12.906Z,101819.28
2024-03-05T11:30:09.887Z,101807.59
2024-03-05T11:32:58.394Z,101818.72
2024-03-05T11:35:48.334Z,101809.81
2024-03-05T11:38:56.918Z,101812.47
2024-03-05T11:41:46.574Z,101819.25
2024-03-05T11:44:56.404Z,101808.72
2024-03-05T11:47:49.523Z,101808.91
2024-03-05T11:50:39.505Z,101801.16
2024-03-05T11:53:33.061Z,101803.94
2024-03-05T11:56:21.179Z,101794.38
2024-03-05T11:59:10.604Z,101796.88
2024-03-05T12:02:00.623Z,101801.97
2024-03-05T12:04:50.495Z,101793.56
2024-03-05T12:07:39.400Z,101794.00
2024-03-05T12:10:32.522Z,101803.28
2024-03-05T12:13:21.056Z,101807.66
2024-03-05T12:16:10.965Z,101806.63
2024-03-05T12:19:02.160Z,101808.56
2024-03-05T12:21:50.637Z,101814.75
2024-03-05T12:24:39.201Z,101799.25
2024-03-05T12:27:30.315Z,101818.94
2024-03-05T12:30:20.796Z,101815.25
2024-03-05T12:33:12.217Z,101816.75
2024-03-05T12:36:02.118Z,101820.09
2024-03-05T12:38:50.312Z,101808.38
2024-03-05T12:41:40.705Z,101830.34
2024-03-05T12:44:31.707Z,101817.66
2024-03-05T12:47:20.996Z,101817.03
2024-03-05T12:50:10.582Z,101831.75
2024-03-05T12:53:04.250Z,101824.09
2024-03-05T12:56:01.975Z,101821.13
2024-03-05T12:58:50.135Z,101834.88
2024-03-05T13:01:39.775Z,101828.38
2024-03-05T13:04:28.427Z,101833.38
2024-03-05T13:07:16.808Z,101842.91
2024-03-05T13:10:11.749Z,101854.88
2024-03-05T13:13:00.512Z,101841.22
2024-03-05T13:15:48.782Z,101843.28
2024-03-05T13:18:36.880Z,101850.31
2024-03-05T13:21:24.876Z,101858.72
2024-03-05T13:24:13.766Z,101864.63
2024-03-05T13:27:04.210Z,101866.09
2024-03-05T13:30:01.358Z,101870.44
2024-03-05T13:33:02.482Z,101869.84
2024-03-05T13:35:53.101Z,101872.72
2024-03-05T13:38:41.232Z,101871.13
2024-03-05T13:41:29.746Z,101879.50
2024-03-05T13:44:21.396Z,101880.22
2024-03-05T13:47:09.805Z,101874.78
2024-03-05T13:49:58.226Z,101876.41
2024-03-05T13:52:49.013Z,101874.78
2024-03-05T13:55:37.330Z,101875.66
2024-03-05T13:58:25.843Z,101881.25
2024-03-05T14:01:15.416Z,101877.25
2024-03-05T14:04:03.657Z,101870.28
2024-03-05T14:06:51.877Z,101876.09
2024-03-05T14:09:40.114Z,101870.38
2024-03-05T14:12:30.399Z,101866.88
2024-03-05T14:15:22.888Z,101867.06
2024-03-05T14:18:13.050Z,101868.66
2024-03-05T14:21:01.256Z,101877.84
2024-03-05T14:23:49.612Z,101863.06
2024-03-05T14:26:37.969Z,101867.50
2024-03-05T14:29:26.292Z,101871.63
2024-03-05T14:32:14.630Z,101864.28
2024-03-05T14:35:09.907Z,101873.03
2024-03-05T14:37:59.254Z,101883.22
2024-03-05T14:40:47.463Z,101876.78
2024-03-05T14:43:36.092Z,101880.38
2024-03-05T14:46:26.059Z,101887.56
2024-03-05T14:49:14.582Z,101883.03
2024-03-05T14:52:05.502Z,101889.97
2024-03-05T14:54:53.851Z,101873.31
2024-03-05T14:57:42.754Z,101885.63
2024-03-05T15:00:32.125Z,101887.25
2024-03-05T15:03:21.479Z,101884.66
2024-03-05T15:06:12.417Z,101889.44
2024-03-05T15:09:02.008Z,101894.69
2024-03-05T15:11:50.106Z,101898.97
2024-03-05T15:14:43.144Z,101886.44
2024-03-05T15:17:31.732Z,101900.16
2024-03-05T15:20:23.028Z,101895.34
2024-03-05T15:23:13.553Z,101897.94
2024-03-05T15:26:06.400Z,101895.09
2024-03-05T15:28:55.414Z,101903.13
2024-03-05T15:31:45.831Z,101906.03
2024-03-05T15:34:34.226Z,101905.72
2024-03-05T15:37:23.335Z,101902.66
2024-03-05T15:40:17.546Z,101904.28
2024-03-05T15:43:08.679Z,101904.38
2024-03-05T15:45:57.394Z,101904.03
2024-03-05T15:48:45.585Z,101906.19
2024-03-05T15:51:34.157Z,101923.78
2024-03-05T15:54:22.567Z,101921.03
2024-03-05T15:57:20.740Z,101904.94
2024-03-05T16:00:15.384Z,101912.06
2024-03-05T16:03:05.922Z,101914.22
2024-03-05T16:06:00.804Z,101902.94
2024-03-05T16:08:55.454Z,101920.63
2024-03-05T16:11:43.714Z,101931.97
2024-03-05T16:14:31.933Z,101918.88
2024-03-05T16:17:24.444Z,101915.00
2024-03-05T16:20:16.147Z,101918.44
2024-03-05T16:23:05.023Z,101925.09
2024-03-05T16:25:53.746Z,101931.59
2024-03-05T16:28:42.014Z,101932.31
2024-03-05T16:31:30.206Z,101925.63
2024-03-05T16:34:20.442Z,101926.75
2024-03-05T16:37:31.616Z,101934.22
2024-03-05T16:40:22.059Z,101939.13
2024-03-05T16:43:13.311Z,101934.06
2024-03-05T16:46:01.512Z,101948.91
2024-03-05T16:48:49.954Z,101952.59
2024-03-05T16:51:41.124Z,101957.06
2024-03-05T16:54:29.687Z,101954.34
2024-03-05T16:57:17.857Z,101966.44
2024-03-05T17:00:08.763Z,101960.53
2024-03-05T17:02:58.037Z,101965.06
2024-03-05T17:05:52.290Z,101972.06
2024-03-05T17:08:44.036Z,101972.56
2024-03-05T17:11:32.296Z,101976.28
2024-03-05T17:14:21.248Z,101986.63
2024-03-05T17:17:10.871Z,101972.63
2024-03-05T17:20:03.431Z,101981.19
2024-03-05T17:22:57.416Z,101988.63
2024-03-05T17:25:47.431Z,101998.16
2024-03-05T17:28:35.745Z,101987.03
2024-03-05T17:31:28.305Z,101992.88
2024-03-05T17:34:19.051Z,101990.13
2024-03-05T17:37:07.184Z,102001.13
2024-03-05T17:39:55.360Z,102011.13
2024-03-05T17:42:46.141Z,102004.03
2024-03-05T17:45:36.125Z,102012.59
2024-03-05T17:48:24.576Z,102014.53
2024-03-05T17:51:14.692Z,102021.78
2024-03-05T17:54:03.017Z,102025.19
2024-03-05T17:56:51.628Z,102029.53
2024-03-05T17:59:41.296Z,102027.78
2024-03-05T18:02:29.692Z,102033.75
2024-03-05T18:05:21.126Z,102039.72
2024-03-05T18:08:10.069Z,102036.97
2024-03-05T18:10:58.417Z,102043.09
2024-03-05T18:13:47.467Z,102046.31
2024-03-05T18:16:38.750Z,102049.09
2024-03-05T18:19:29.577Z,102056.66
2024-03-05T18:22:19.878Z,102058.44
2024-03-05T18:25:15.818Z,102056.97
2024-03-05T18:28:05.276Z,102059.72
2024-03-05T18:30:55.182Z,102069.41
2024-03-05T18:33:47.053Z,102077.00
2024-03-05T18:36:40.025Z,102061.66
2024-03-05T18:39:28.194Z,102069.75
2024-03-05T18:42:16.471Z,102067.50
2024-03-05T18:45:06.615Z,102060.69
2024-03-05T18:48:03.082Z,102056.03
2024-03-05T18:50:59.164Z,102059.25
2024-03-05T18:53:50.189Z,102065.22
2024-03-05T18:56:39.784Z,102061.97
2024-03-05T18:59:28.992Z,102051.50
2024-03-05T19:02:17.600Z,102059.25
2024-03-05T19:05:06.452Z,102056.81
2024-03-05T19:07:56.022Z,102060.22
2024-03-05T19:10:45.017Z,102052.16
2024-03-05T19:13:33.395Z,102060.72
2024-03-05T19:16:22.040Z,102054.09
2024-03-05T19:19:12.208Z,102064.25
2024-03-05T19:22:02.368Z,102061.84
2024-03-05T19:24:55.052Z,102068.44
2024-03-05T19:27:43.659Z,102069.25
2024-03-05T19:30:32.806Z,102076.19
2024-03-05T19:33:21.061Z,102075.88
2024-03-05T19:36:10.832Z,102066.34
2024-03-05T19:39:00.076Z,102069.09
2024-03-05T19:41:49.812Z,102074.72
2024-03-05T19:44:38.318Z,102069.41
2024-03-05T19:47:27.041Z,102072.97
2024-03-05T19:50:15.374Z,102067.81
2024-03-05T19:53:03.651Z,102072.16
2024-03-05T19:55:51.870Z,102072.00
2024-03-05T19:58:41.770Z,102077.16
2024-03-05T20:01:29.951Z,102078.63
2024-03-05T20:04:18.873Z,102087.00
2024-03-05T20:07:07.047Z,102091.22
2024-03-05T20:09:55.284Z,102097.19
2024-03-05T20:12:44.608Z,102100.41
2024-03-05T20:15:34.058Z,102097.19
2024-03-05T20:18:22.447Z,102095.22
2024-03-05T20:21:10.532Z,102095.22
2024-03-05T20:23:58.843Z,102102.31
2024-03-05T20:26:47.055Z,102099.09
2024-03-05T20:29:35.605Z,102106.84
2024-03-05T20:32:30.299Z,102104.59
2024-03-05T20:35:20.016Z,102113.78
2024-03-05T20:38:09.110Z,102116.22
2024-03-05T20:40:57.252Z,102115.22
2024-03-05T20:43:47.001Z,102115.84
2024-03-05T20:46:36.169Z,102120.41
2024-03-05T20:49:25.640Z,102115.25
2024-03-05T20:52:13.773Z,102115.84
2024-03-05T20:55:02.094Z,102118.44
2024-03-05T20:57:51.447Z,102120.88
2024-03-05T21:00:39.506Z,102119.09
2024-03-05T21:03:31.421Z,102124.91
2024-03-05T21:06:22.540Z,102123.16
2024-03-05T21:09:10.762Z,102120.91
2024-03-05T21:11:58.966Z,102123.78
2024-03-05T21:14:47.168Z,102120.41
2024-03-05T21:17:35.710Z,102121.03
2024-03-05T21:20:24.045Z,102121.03
2024-03-05T21:23:16.807Z,102122.19
2024-03-05T21:26:14.292Z,102122.31
2024-03-05T21:29:15.176Z,102129.25
2024-03-05T21:32:04.231Z,102126.69
2024-03-05T21:34:52.611Z,102127.81
2024-03-05T21:37:45.401Z,102125.19
2024-03-05T21:40:35.097Z,102129.72
2024-03-05T21:43:23.185Z,102132.91
2024-03-05T21:46:11.283Z,102137.88
2024-03-05T21:48:59.439Z,102129.66
2024-03-05T21:51:47.574Z,102138.53
2024-03-05T21:54:36.496Z,102130.28
2024-03-05T21:57:25.955Z,102134.78
2024-03-05T22:00:15.480Z,102133.00
2024-03-05T22:03:05.113Z,102140.91
2024-03-05T22:05:54.600Z,102143.94
2024-03-05T22:08:42.933Z,102153.41
2024-03-05T22:11:31.030Z,102156.69
2024-03-05T22:14:20.461Z,102165.06
2024-03-05T22:17:10.051Z,102160.25
2024-03-05T22:19:58.246Z,102159.16
2024-03-05T22:22:46.751Z,102165.13
2024-03-05T22:25:35.061Z,102162.53
2024-03-05T22:28:23.448Z,102166.44
2024-03-05T22:31:12.872Z,102174.00
2024-03-05T22:34:00.986Z,102178.34
2024-03-05T22:36:49.027Z,102179.00
2024-03-05T22:39:38.125Z,102179.81
2024-03-05T22:42:26.241Z,102175.31
2024-03-05T22:45:14.263Z,102179.00
2024-03-05T22:48:03.645Z,102177.41
2024-03-05T22:50:53.742Z,102175.28
2024-03-05T22:53:42.275Z,102170.28
2024-03-05T22:56:30.286Z,102171.22
2024-03-05T22:59:20.132Z,102170.56
2024-03-05T23:02:08.254Z,102172.22
2024-03-05T23:04:57.733Z,102173.81
2024-03-05T23:07:47.198Z,102178.16
2024-03-05T23:10:35.441Z,102175.44
2024-03-05T23:13:25.133Z,102176.38
2024-03-05T23:16:13.307Z,102165.28
2024-03-05T23:19:01.445Z,102178.03
2024-03-05T23:21:50.807Z,102178.16
2024-03-05T23:24:39.303Z,102180.91
2024-03-05T23:27:27.515Z,102185.09
2024-03-05T23:30:17.494Z,102190.25
2024-03-05T23:33:06.333Z,102183.31
2024-03-05T23:35:54.542Z,102185.25
2024-03-05T23:38:44.514Z,102192.19
2024-03-05T23:41:32.694Z,102192.84
2024-03-05T23:44:24.019Z,102198.00
2024-03-05T23:47:12.278Z,102184.13
2024-03-05T23:50:00.511Z,102200.25
2024-03-05T23:52:48.687Z,102189.28
2024-03-05T23:55:38.218Z,102192.84
2024-03-05T23:58:26.327Z,102189.59
